Time;durP1;ratioP1;P1;durP2;ratioP2;P2;SDS_P1;SDS_P2;PMS_P1;PMS_P2;Temp;Humidity;BMP_temperature;BMP_pressure;BME280_temperature;BME280_humidity;BME280_pressure;Samples;Min_cycle;Max_cycle;Signal;HPM_P1;HPM_P2
2023/11/01 00:00:05;;;;;;;2.72;2.22;;;11.40;99.90;;;;;;5079658;28;20048;-93
2023/11/01 00:02:32;;;;;;;3.35;1.50;;;11.40;99.90;;;;;;5083308;28;20559;-94
2023/11/01 00:04:58;;;;;;;7.85;3.17;;;11.50;99.90;;;;;;5072238;28;20020;-95
2023/11/01 00:07:23;;;;;;;5.72;1.50;;;11.50;99.90;;;;;;5081031;28;20123;-93
2023/11/01 00:09:49;;;;;;;4.25;1.83;;;11.50;99.90;;;;;;5079832;28;20024;-94
2023/11/01 00:12:15;;;;;;;2.40;1.13;;;11.40;99.90;;;;;;5081689;28;20086;-93
2023/11/01 00:14:40;;;;;;;4.68;1.70;;;11.40;99.90;;;;;;5067656;28;20036;-94
2023/11/01 00:17:06;;;;;;;3.67;2.05;;;11.40;99.90;;;;;;5081919;28;20020;-93
2023/11/01 00:19:32;;;;;;;4.20;1.90;;;11.40;99.90;;;;;;5058643;28;20029;-95
2023/11/01 00:21:57;;;;;;;4.93;1.80;;;11.40;99.90;;;;;;5081129;28;20056;-94
2023/11/01 00:24:23;;;;;;;4.90;1.80;;;11.40;99.90;;;;;;5083901;28;20084;-94
2023/11/01 00:26:48;;;;;;;4.25;2.15;;;11.40;99.90;;;;;;5082936;28;20060;-94
2023/11/01 00:29:15;;;;;;;5.85;2.85;;;11.40;99.90;;;;;;5079040;28;20106;-93
2023/11/01 00:31:40;;;;;;;3.97;1.60;;;11.40;99.90;;;;;;5080113;28;20181;-94
2023/11/01 00:34:06;;;;;;;5.35;2.88;;;11.40;99.90;;;;;;5062365;28;20498;-94
2023/11/01 00:36:32;;;;;;;5.57;2.55;;;11.40;99.90;;;;;;5083683;28;20035;-94
2023/11/01 00:38:57;;;;;;;7.55;2.83;;;11.40;99.90;;;;;;5082681;28;20036;-93
2023/11/01 00:41:23;;;;;;;3.05;1.83;;;11.40;99.90;;;;;;5083610;28;20114;-94
2023/11/01 00:43:51;;;;;;;5.00;1.85;;;11.40;99.90;;;;;;5082624;28;20043;-93
2023/11/01 00:46:17;;;;;;;2.60;1.60;;;11.40;99.90;;;;;;5082352;28;20020;-94
2023/11/01 00:48:43;;;;;;;2.83;1.63;;;11.40;99.90;;;;;;5082570;28;20027;-95
2023/11/01 00:51:08;;;;;;;6.00;1.70;;;11.40;99.90;;;;;;5089908;28;20450;-94
2023/11/01 00:53:34;;;;;;;3.30;1.35;;;11.40;99.90;;;;;;5086344;28;20490;-94
2023/11/01 00:55:59;;;;;;;3.17;1.95;;;11.40;99.90;;;;;;5085857;28;21265;-95
2023/11/01 00:58:25;;;;;;;19.85;3.92;;;11.40;99.90;;;;;;5075288;28;20032;-95
2023/11/01 01:00:51;;;;;;;5.35;2.35;;;11.40;99.90;;;;;;5085136;28;20012;-93
2023/11/01 01:03:17;;;;;;;3.25;1.30;;;11.30;99.90;;;;;;5074725;28;20020;-94
2023/11/01 01:05:42;;;;;;;4.30;2.13;;;11.30;99.90;;;;;;5084464;28;20038;-94
2023/11/01 01:08:08;;;;;;;7.80;1.75;;;11.30;99.90;;;;;;5067990;28;20090;-93
2023/11/01 01:10:34;;;;;;;3.03;1.48;;;11.30;99.90;;;;;;5083678;28;20546;-94
2023/11/01 01:12:59;;;;;;;3.10;1.67;;;11.20;99.90;;;;;;5084024;28;20017;-94
2023/11/01 01:15:25;;;;;;;6.53;2.22;;;11.20;99.90;;;;;;5082935;28;20035;-95
2023/11/01 01:17:52;;;;;;;2.00;1.77;;;11.30;99.90;;;;;;5082782;28;20020;-94
2023/11/01 01:20:18;;;;;;;4.25;1.65;;;11.20;99.90;;;;;;5069331;28;20052;-95
2023/11/01 01:22:44;;;;;;;2.70;1.20;;;11.20;99.90;;;;;;5082215;28;20031;-94
2023/11/01 01:25:09;;;;;;;2.15;1.63;;;11.20;99.90;;;;;;5083690;28;20028;-95
2023/11/01 01:27:35;;;;;;;6.30;2.40;;;11.20;99.90;;;;;;5083736;28;20024;-95
2023/11/01 01:30:01;;;;;;;3.80;1.48;;;11.20;99.90;;;;;;5084965;28;20048;-95
2023/11/01 01:32:31;;;;;;;4.78;1.63;;;11.10;99.90;;;;;;5065607;28;20029;-93
2023/11/01 01:34:57;;;;;;;4.47;1.55;;;11.10;99.90;;;;;;5065067;28;20024;-95
2023/11/01 01:37:22;;;;;;;4.22;1.90;;;11.10;99.90;;;;;;5083462;28;20020;-94
2023/11/01 01:39:48;;;;;;;3.38;1.35;;;11.10;99.90;;;;;;5083902;28;20028;-95
2023/11/01 01:42:14;;;;;;;1.88;1.40;;;11.00;99.90;;;;;;5068095;28;20082;-96
2023/11/01 01:44:39;;;;;;;2.70;1.50;;;11.00;99.90;;;;;;5083754;28;20587;-95
2023/11/01 01:47:05;;;;;;;2.78;1.75;;;11.00;99.90;;;;;;5084206;28;20115;-94
2023/11/01 01:49:32;;;;;;;2.05;1.85;;;11.00;99.90;;;;;;5091141;28;20005;-95
2023/11/01 01:51:59;;;;;;;2.65;1.50;;;10.90;99.90;;;;;;5100773;28;20048;-94
2023/11/01 01:54:26;;;;;;;2.75;1.50;;;11.00;99.90;;;;;;5083967;28;20024;-93
2023/11/01 01:56:52;;;;;;;2.08;1.13;;;10.90;99.90;;;;;;5084230;28;20044;-93
2023/11/01 01:59:18;;;;;;;5.70;1.80;;;10.90;99.90;;;;;;5085928;28;20025;-95
2023/11/01 02:01:45;;;;;;;3.40;1.60;;;10.90;99.90;;;;;;5087676;28;20042;-94
2023/11/01 02:04:13;;;;;;;1.75;1.30;;;10.80;99.90;;;;;;5085564;28;20033;-94
2023/11/01 02:06:39;;;;;;;3.28;1.85;;;10.80;99.90;;;;;;5084938;28;20039;-94
2023/11/01 02:09:05;;;;;;;3.60;1.27;;;10.80;99.90;;;;;;5083917;28;20036;-94
2023/11/01 02:11:32;;;;;;;2.60;1.52;;;10.80;99.90;;;;;;5083311;28;20036;-94
2023/11/01 02:13:57;;;;;;;2.67;1.50;;;10.70;99.90;;;;;;5059480;28;20017;-95
2023/11/01 02:16:23;;;;;;;5.22;1.67;;;10.70;99.90;;;;;;5083390;28;20062;-93
2023/11/01 02:18:49;;;;;;;2.53;1.20;;;10.70;99.90;;;;;;5082681;28;20025;-95
2023/11/01 02:21:15;;;;;;;4.28;1.73;;;10.70;99.90;;;;;;5083018;28;20033;-93
2023/11/01 02:23:42;;;;;;;3.97;1.98;;;10.70;99.90;;;;;;5082258;28;20032;-93
2023/11/01 02:26:08;;;;;;;2.35;1.50;;;10.60;99.90;;;;;;5082178;28;20024;-95
2023/11/01 02:28:34;;;;;;;4.20;1.60;;;10.60;99.90;;;;;;5073129;28;20042;-95
2023/11/01 02:31:00;;;;;;;2.85;1.42;;;10.60;99.90;;;;;;5081318;28;20455;-94
2023/11/01 02:33:26;;;;;;;2.13;1.30;;;10.60;99.90;;;;;;5081265;28;20043;-94
2023/11/01 02:35:52;;;;;;;3.60;1.65;;;10.60;99.90;;;;;;5082140;28;20031;-96
2023/11/01 02:38:18;;;;;;;4.95;2.17;;;10.50;99.90;;;;;;5069431;28;20029;-94
2023/11/01 02:40:43;;;;;;;4.82;1.85;;;10.50;99.90;;;;;;5083164;28;20398;-95
2023/11/01 02:43:09;;;;;;;4.82;1.88;;;10.50;99.90;;;;;;5085066;28;20111;-95
2023/11/01 02:45:35;;;;;;;2.97;1.45;;;10.50;99.90;;;;;;5084127;28;20021;-94
2023/11/01 02:48:01;;;;;;;5.35;1.73;;;10.60;99.90;;;;;;5078146;28;20493;-95
2023/11/01 02:50:26;;;;;;;3.85;1.52;;;10.60;99.90;;;;;;5088177;28;20023;-92
2023/11/01 02:52:52;;;;;;;1.67;1.35;;;10.60;99.90;;;;;;5083807;28;20076;-93
2023/11/01 02:55:18;;;;;;;4.95;1.98;;;10.70;99.90;;;;;;5084085;28;20025;-94
2023/11/01 02:57:45;;;;;;;3.25;1.48;;;10.70;99.90;;;;;;5083323;28;20039;-95
2023/11/01 03:00:20;;;;;;;2.85;1.48;;;10.70;99.90;;;;;;5083439;28;20029;-94
2023/11/01 03:02:49;;;;;;;3.78;1.52;;;10.70;99.90;;;;;;5082682;28;20025;-95
2023/11/01 03:05:16;;;;;;;3.25;1.23;;;10.70;99.90;;;;;;5083194;28;20583;-94
2023/11/01 03:07:41;;;;;;;2.15;1.25;;;10.70;99.90;;;;;;5072247;28;20025;-95
2023/11/01 03:10:09;;;;;;;2.67;1.58;;;10.80;99.90;;;;;;5082557;28;20029;-91
2023/11/01 03:12:36;;;;;;;4.13;1.65;;;10.90;99.90;;;;;;5093598;28;20093;-95
2023/11/01 03:15:04;;;;;;;1.23;1.13;;;10.90;99.90;;;;;;5096535;28;20033;-95
2023/11/01 03:17:30;;;;;;;3.22;1.25;;;11.00;99.90;;;;;;5097511;28;20016;-94
2023/11/01 03:19:56;;;;;;;1.92;1.23;;;11.10;99.90;;;;;;5097069;28;20020;-93
2023/11/01 03:22:23;;;;;;;3.75;1.55;;;11.10;99.90;;;;;;5090087;28;20021;-95
2023/11/01 03:24:49;;;;;;;3.88;1.65;;;11.10;99.90;;;;;;5070947;28;20025;-94
2023/11/01 03:27:14;;;;;;;2.85;0.95;;;11.30;99.90;;;;;;5081424;28;20067;-95
2023/11/01 03:29:40;;;;;;;3.15;1.48;;;11.40;99.90;;;;;;5060018;28;20021;-93
2023/11/01 03:32:08;;;;;;;2.45;1.83;;;11.50;99.90;;;;;;5062028;28;20240;-93
2023/11/01 03:34:34;;;;;;;2.95;0.90;;;11.50;99.90;;;;;;5079942;28;20028;-96
2023/11/01 03:37:00;;;;;;;3.65;1.95;;;11.50;99.90;;;;;;5080353;28;20025;-94
2023/11/01 03:39:25;;;;;;;4.88;1.48;;;11.50;99.50;;;;;;5081038;28;20036;-94
2023/11/01 03:41:51;;;;;;;3.22;1.13;;;11.50;99.90;;;;;;5081355;28;20025;-94
2023/11/01 03:44:17;;;;;;;1.90;1.27;;;11.40;99.40;;;;;;5081609;28;20038;-95
2023/11/01 03:46:42;;;;;;;2.47;1.00;;;11.30;99.80;;;;;;5080994;28;20039;-95
2023/11/01 03:49:08;;;;;;;2.80;1.30;;;11.30;99.90;;;;;;5080972;28;20032;-93
2023/11/01 03:51:34;;;;;;;3.92;0.88;;;11.30;99.60;;;;;;5081935;28;20061;-95
2023/11/01 03:53:59;;;;;;;1.17;0.90;;;11.30;99.90;;;;;;5082159;28;20047;-93
2023/11/01 03:56:25;;;;;;;2.17;1.00;;;11.20;99.90;;;;;;5064590;28;20104;-95
2023/11/01 03:58:51;;;;;;;2.00;0.90;;;11.10;99.90;;;;;;5081837;28;20390;-94
2023/11/01 04:01:17;;;;;;;2.90;1.67;;;11.10;99.90;;;;;;5064456;28;20032;-94
2023/11/01 04:03:43;;;;;;;1.50;1.00;;;11.00;99.90;;;;;;5082460;28;20020;-93
2023/11/01 04:06:09;;;;;;;3.88;1.63;;;11.00;99.90;;;;;;5081765;28;20113;-94
2023/11/01 04:08:37;;;;;;;4.10;0.93;;;10.90;99.90;;;;;;5080935;28;20055;-94
2023/11/01 04:11:04;;;;;;;1.67;1.58;;;10.80;99.90;;;;;;5064039;28;20123;-95
2023/11/01 04:13:31;;;;;;;5.10;1.73;;;10.70;99.90;;;;;;5069035;28;20020;-94
2023/11/01 04:15:57;;;;;;;2.55;1.40;;;10.60;99.90;;;;;;5065227;28;20382;-94
2023/11/01 04:18:24;;;;;;;2.13;1.23;;;10.60;99.90;;;;;;5068146;28;20080;-95
2023/11/01 04:20:49;;;;;;;3.50;1.33;;;10.50;99.90;;;;;;5081687;28;20039;-94
2023/11/01 04:23:15;;;;;;;2.42;1.02;;;10.50;99.90;;;;;;5074270;28;20016;-96
2023/11/01 04:25:41;;;;;;;1.48;0.88;;;10.50;99.90;;;;;;5086108;28;20059;-94
2023/11/01 04:28:08;;;;;;;2.03;0.95;;;10.40;99.90;;;;;;5080660;28;20032;-94
2023/11/01 04:30:39;;;;;;;3.25;1.52;;;10.40;99.90;;;;;;5081708;28;20028;-94
2023/11/01 04:33:06;;;;;;;3.50;1.63;;;10.30;99.90;;;;;;5063383;28;20039;-94
2023/11/01 04:35:34;;;;;;;2.60;1.40;;;10.30;99.90;;;;;;5082100;28;20091;-95
2023/11/01 04:38:00;;;;;;;4.70;1.50;;;10.20;99.90;;;;;;5083060;28;20032;-94
2023/11/01 04:40:26;;;;;;;1.63;1.48;;;10.10;99.90;;;;;;5082712;28;20507;-94
2023/11/01 04:42:51;;;;;;;1.55;1.23;;;10.10;99.90;;;;;;5084975;28;20028;-94
2023/11/01 04:45:17;;;;;;;2.28;1.02;;;10.00;99.90;;;;;;5084125;28;20021;-94
2023/11/01 04:47:43;;;;;;;4.35;1.67;;;10.00;99.90;;;;;;5085259;28;20155;-94
2023/11/01 04:50:09;;;;;;;2.70;1.30;;;10.00;99.90;;;;;;5082904;28;20044;-94
2023/11/01 04:52:36;;;;;;;2.42;1.27;;;10.00;99.90;;;;;;5065705;28;20021;-95
2023/11/01 04:55:04;;;;;;;3.00;1.17;;;10.00;99.90;;;;;;5073148;28;20029;-94
2023/11/01 04:57:30;;;;;;;1.67;1.20;;;10.00;99.90;;;;;;5082369;28;20021;-95
2023/11/01 04:59:55;;;;;;;1.40;0.90;;;10.00;99.90;;;;;;5083083;28;20021;-94
2023/11/01 05:02:21;;;;;;;3.72;1.15;;;10.00;99.90;;;;;;5083744;28;20025;-94
2023/11/01 05:04:47;;;;;;;2.40;1.15;;;10.00;99.90;;;;;;5068418;28;20109;-93
2023/11/01 05:07:13;;;;;;;1.98;1.58;;;10.00;99.90;;;;;;5082607;28;20068;-95
2023/11/01 05:09:38;;;;;;;3.90;1.55;;;9.90;99.90;;;;;;5082501;28;20106;-94
2023/11/01 05:12:05;;;;;;;4.18;1.60;;;9.90;99.90;;;;;;5071211;28;20028;-93
2023/11/01 05:14:31;;;;;;;3.88;0.75;;;9.80;99.90;;;;;;5086618;28;20044;-94
2023/11/01 05:17:00;;;;;;;1.02;0.90;;;9.80;99.90;;;;;;5085001;28;20029;-94
2023/11/01 05:19:25;;;;;;;1.95;1.25;;;9.70;99.90;;;;;;5083303;28;20025;-95
2023/11/01 05:21:51;;;;;;;3.15;1.20;;;9.70;99.90;;;;;;5084639;28;20078;-93
2023/11/01 05:24:17;;;;;;;3.95;1.42;;;9.70;99.90;;;;;;5069121;28;20017;-93
2023/11/01 05:26:43;;;;;;;1.73;1.00;;;9.70;99.90;;;;;;5067874;28;20020;-95
2023/11/01 05:29:10;;;;;;;2.55;1.45;;;9.70;99.90;;;;;;5084715;28;20017;-95
2023/11/01 05:31:35;;;;;;;3.20;1.27;;;9.70;99.90;;;;;;5085317;28;20025;-94
2023/11/01 05:34:02;;;;;;;3.15;1.30;;;9.70;99.90;;;;;;5068681;28;20020;-93
2023/11/01 05:36:28;;;;;;;2.35;1.77;;;9.80;99.90;;;;;;5085363;28;20028;-92
2023/11/01 05:38:54;;;;;;;1.55;1.42;;;9.70;99.90;;;;;;5059250;28;20047;-95
2023/11/01 05:41:20;;;;;;;1.73;1.20;;;9.70;99.90;;;;;;5086725;28;20025;-94
2023/11/01 05:43:46;;;;;;;1.42;1.17;;;9.70;99.90;;;;;;5086942;28;20071;-94
2023/11/01 05:46:12;;;;;;;1.90;1.33;;;9.70;99.90;;;;;;5085827;28;20031;-94
2023/11/01 05:48:37;;;;;;;2.13;1.00;;;9.60;99.90;;;;;;5086808;28;20055;-94
2023/11/01 05:51:04;;;;;;;2.60;1.17;;;9.70;99.90;;;;;;5092635;28;20017;-94
2023/11/01 05:53:31;;;;;;;1.98;1.13;;;9.70;99.90;;;;;;5086514;28;20360;-94
2023/11/01 05:55:59;;;;;;;;;;;9.60;99.90;;;;;;5087815;28;20019;-94
2023/11/01 05:58:25;;;;;;;1.75;1.55;;;9.60;99.90;;;;;;5088412;28;19909;-95
2023/11/01 06:00:51;;;;;;;3.05;1.20;;;9.60;99.90;;;;;;5088537;28;20505;-94
2023/11/01 06:03:16;;;;;;;4.50;1.10;;;9.70;99.90;;;;;;5073336;28;20029;-94
2023/11/01 06:05:42;;;;;;;10.07;3.30;;;9.60;99.90;;;;;;5085417;28;20544;-94
2023/11/01 06:08:11;;;;;;;13.35;6.28;;;9.60;99.90;;;;;;5085141;28;20063;-92
2023/11/01 06:10:38;;;;;;;36.17;16.15;;;9.60;99.90;;;;;;5084033;28;20029;-94
2023/11/01 06:13:05;;;;;;;27.95;15.60;;;9.50;99.90;;;;;;5083667;28;20681;-94
2023/11/01 06:15:31;;;;;;;15.45;6.55;;;9.60;99.90;;;;;;5083443;28;20029;-94
2023/11/01 06:17:56;;;;;;;9.85;3.60;;;9.60;99.90;;;;;;5088562;28;20028;-91
2023/11/01 06:20:22;;;;;;;13.32;4.50;;;9.50;99.90;;;;;;5082676;28;20080;-95
2023/11/01 06:22:48;;;;;;;6.75;3.17;;;9.50;99.90;;;;;;5082572;28;20056;-93
2023/11/01 06:25:15;;;;;;;8.68;3.58;;;9.40;99.90;;;;;;5084063;28;20032;-94
2023/11/01 06:27:41;;;;;;;4.63;2.65;;;9.40;99.90;;;;;;5083120;28;20024;-95
2023/11/01 06:30:07;;;;;;;5.10;1.95;;;9.40;99.90;;;;;;5083565;28;20028;-96
2023/11/01 06:32:35;;;;;;;4.80;2.67;;;9.40;99.90;;;;;;5084746;28;20077;-94
2023/11/01 06:35:01;;;;;;;5.15;2.70;;;9.40;99.90;;;;;;5084508;28;20021;-94
2023/11/01 06:37:27;;;;;;;5.90;2.95;;;9.40;99.90;;;;;;5082958;28;20048;-94
2023/11/01 06:39:53;;;;;;;4.55;1.77;;;9.40;99.90;;;;;;5084556;28;20028;-95
2023/11/01 06:42:18;;;;;;;4.95;1.58;;;9.40;99.90;;;;;;5066231;28;20115;-94
2023/11/01 06:44:44;;;;;;;3.13;1.55;;;9.40;99.90;;;;;;5084377;28;20078;-96
2023/11/01 06:47:10;;;;;;;4.43;2.95;;;9.40;99.90;;;;;;5085619;28;20016;-94
2023/11/01 06:49:38;;;;;;;3.85;1.75;;;9.40;99.90;;;;;;5084020;28;20074;-96
2023/11/01 06:52:07;;;;;;;3.85;2.47;;;9.40;99.90;;;;;;5085454;28;20020;-95
2023/11/01 06:54:34;;;;;;;6.32;1.77;;;9.40;99.90;;;;;;5085642;28;20016;-94
2023/11/01 06:56:59;;;;;;;4.78;1.67;;;9.40;99.90;;;;;;5086259;28;20028;-94
2023/11/01 06:59:25;;;;;;;5.10;3.22;;;9.40;99.90;;;;;;5067415;28;20092;-93
2023/11/01 07:01:51;;;;;;;3.63;2.30;;;9.30;99.90;;;;;;5084702;28;20352;-95
2023/11/01 07:04:17;;;;;;;5.22;2.92;;;9.30;99.90;;;;;;5084074;28;20028;-94
2023/11/01 07:06:43;;;;;;;5.03;3.63;;;9.30;99.90;;;;;;5083802;28;20066;-94
2023/11/01 07:09:09;;;;;;;4.88;4.05;;;9.30;99.90;;;;;;5087059;28;20005;-93
2023/11/01 07:11:37;;;;;;;5.03;2.67;;;9.30;99.90;;;;;;5080018;28;20238;-93
2023/11/01 07:14:06;;;;;;;4.93;3.60;;;9.30;99.90;;;;;;5077294;28;20244;-92
2023/11/01 07:16:34;;;;;;;5.35;2.67;;;9.30;99.90;;;;;;5058209;28;20040;-92
2023/11/01 07:18:59;;;;;;;5.93;2.85;;;9.40;99.90;;;;;;5064872;28;20016;-95
2023/11/01 07:21:25;;;;;;;2.70;1.92;;;9.40;99.90;;;;;;5092222;28;20041;-94
2023/11/01 07:23:51;;;;;;;2.60;2.05;;;9.40;99.90;;;;;;5091322;28;20047;-94
2023/11/01 07:26:17;;;;;;;2.13;1.65;;;9.40;99.90;;;;;;5090622;28;20024;-96
2023/11/01 07:28:44;;;;;;;3.55;1.90;;;9.40;99.90;;;;;;5088148;28;20475;-95
2023/11/01 07:31:10;;;;;;;2.65;2.05;;;9.50;99.90;;;;;;5090907;28;20072;-94
2023/11/01 07:33:37;;;;;;;4.00;2.45;;;9.60;99.90;;;;;;5092128;28;20020;-94
2023/11/01 07:36:04;;;;;;;2.63;1.50;;;9.70;99.90;;;;;;5093478;28;20025;-94
2023/11/01 07:38:29;;;;;;;6.15;2.03;;;9.80;99.90;;;;;;5091638;28;20025;-96
2023/11/01 07:40:55;;;;;;;2.25;1.50;;;9.80;99.90;;;;;;5090516;28;20169;-96
2023/11/01 07:43:22;;;;;;;3.35;1.80;;;9.90;99.90;;;;;;5091441;28;20014;-94
2023/11/01 07:45:48;;;;;;;5.72;3.08;;;9.90;99.90;;;;;;5091580;28;20024;-94
2023/11/01 07:48:14;;;;;;;5.35;2.22;;;10.10;99.90;;;;;;5091481;28;20024;-94
2023/11/01 07:50:43;;;;;;;2.13;1.85;;;10.10;99.90;;;;;;5093228;28;20099;-93
2023/11/01 07:53:09;;;;;;;6.03;2.60;;;10.20;99.90;;;;;;5090835;28;20024;-95
2023/11/01 07:55:34;;;;;;;4.50;2.83;;;10.30;99.90;;;;;;5074031;28;20058;-95
2023/11/01 07:58:00;;;;;;;3.92;2.65;;;10.40;99.90;;;;;;5081209;28;20354;-96
2023/11/01 08:00:26;;;;;;;3.35;1.45;;;10.40;99.90;;;;;;5089822;28;20088;-94
2023/11/01 08:02:53;;;;;;;2.08;1.45;;;10.50;99.90;;;;;;5092645;28;20161;-96
2023/11/01 08:05:19;;;;;;;4.47;1.35;;;10.50;99.90;;;;;;5073638;28;20017;-95
2023/11/01 08:07:45;;;;;;;2.08;1.58;;;10.50;99.90;;;;;;5088410;28;20189;-94
2023/11/01 08:10:11;;;;;;;2.70;1.42;;;10.60;99.90;;;;;;5088847;28;20029;-96
2023/11/01 08:12:36;;;;;;;2.30;2.00;;;10.70;99.90;;;;;;5089903;28;20021;-93
2023/11/01 08:15:02;;;;;;;2.63;1.83;;;10.70;99.90;;;;;;5088621;28;20047;-93
2023/11/01 08:17:28;;;;;;;3.08;1.73;;;10.80;99.90;;;;;;5080283;28;20528;-95
2023/11/01 08:19:53;;;;;;;2.75;2.40;;;10.90;99.90;;;;;;5083720;28;20056;-94
2023/11/01 08:22:19;;;;;;;13.43;2.92;;;11.00;99.90;;;;;;5075919;28;20004;-94
2023/11/01 08:24:45;;;;;;;2.78;2.13;;;11.10;99.90;;;;;;5091055;28;20032;-94
2023/11/01 08:27:11;;;;;;;4.75;1.92;;;11.20;99.90;;;;;;5088983;28;20017;-94
2023/11/01 08:29:41;;;;;;;2.08;1.83;;;11.30;99.90;;;;;;5074133;28;20088;-95
2023/11/01 08:32:07;;;;;;;2.42;1.77;;;11.30;99.90;;;;;;5092827;28;20017;-93
2023/11/01 08:34:33;;;;;;;2.83;1.65;;;11.50;99.90;;;;;;5091264;28;20046;-92
2023/11/01 08:37:02;;;;;;;2.65;2.33;;;11.50;99.90;;;;;;5091147;28;20012;-94
2023/11/01 08:39:28;;;;;;;4.15;1.80;;;11.60;99.90;;;;;;5090259;28;20028;-94
2023/11/01 08:41:53;;;;;;;2.88;1.88;;;11.70;99.90;;;;;;5091556;28;20223;-91
2023/11/01 08:44:19;;;;;;;4.10;1.85;;;11.80;99.90;;;;;;5092696;28;20025;-93
2023/11/01 08:46:45;;;;;;;2.60;1.30;;;11.90;99.90;;;;;;5090935;28;20024;-94
2023/11/01 08:49:11;;;;;;;3.83;1.42;;;12.00;99.90;;;;;;5066780;28;20576;-95
2023/11/01 08:51:41;;;;;;;4.80;1.95;;;12.00;99.90;;;;;;5060473;28;20025;-92
2023/11/01 08:54:09;;;;;;;2.70;2.42;;;12.20;99.90;;;;;;5078229;28;20040;-93
2023/11/01 08:56:36;;;;;;;2.45;2.25;;;12.20;99.90;;;;;;5077359;28;20029;-93
2023/11/01 08:59:05;;;;;;;2.47;1.52;;;12.30;99.90;;;;;;5081191;28;20027;-93
2023/11/01 09:01:31;;;;;;;3.45;1.65;;;12.40;99.90;;;;;;5083425;28;20017;-91
2023/11/01 09:03:58;;;;;;;3.60;1.85;;;12.40;99.90;;;;;;5089524;28;20036;-93
2023/11/01 09:06:23;;;;;;;3.00;1.67;;;12.40;99.90;;;;;;5085121;28;20024;-93
2023/11/01 09:08:49;;;;;;;5.13;2.28;;;12.50;99.90;;;;;;5082579;28;20081;-94
2023/11/01 09:11:15;;;;;;;3.17;1.52;;;12.60;99.90;;;;;;5083139;28;20020;-93
2023/11/01 09:13:40;;;;;;;2.65;1.42;;;12.70;99.90;;;;;;5083248;28;20386;-92
2023/11/01 09:16:06;;;;;;;2.40;1.77;;;12.80;99.90;;;;;;5085341;28;20043;-93
2023/11/01 09:18:32;;;;;;;3.53;1.30;;;12.90;99.90;;;;;;5085897;28;20021;-95
2023/11/01 09:21:01;;;;;;;2.50;1.63;;;13.00;99.90;;;;;;5078091;28;20021;-94
2023/11/01 09:23:27;;;;;;;2.78;1.63;;;13.10;99.90;;;;;;5088204;28;20581;-94
2023/11/01 09:25:53;;;;;;;3.22;1.63;;;13.10;97.90;;;;;;5088291;28;20088;-93
2023/11/01 09:28:19;;;;;;;3.95;2.15;;;13.10;98.00;;;;;;5088032;28;20044;-92
2023/11/01 09:30:44;;;;;;;2.90;1.60;;;13.20;97.60;;;;;;5087686;28;20491;-92
2023/11/01 09:33:10;;;;;;;4.13;3.03;;;13.20;96.20;;;;;;5089760;28;20032;-94
2023/11/01 09:35:36;;;;;;;3.95;1.85;;;13.30;97.10;;;;;;5090619;28;20012;-93
2023/11/01 09:38:02;;;;;;;3.08;1.17;;;13.40;97.20;;;;;;5092306;28;20040;-93
2023/11/01 09:40:28;;;;;;;2.95;1.35;;;13.50;94.80;;;;;;5091046;28;20028;-96
2023/11/01 09:42:55;;;;;;;2.72;1.50;;;13.60;94.10;;;;;;5075324;28;20081;-94
2023/11/01 09:45:21;;;;;;;8.82;1.45;;;13.70;90.10;;;;;;5082600;28;20025;-92
2023/11/01 09:47:49;;;;;;;2.47;1.17;;;13.90;91.60;;;;;;5084579;28;20021;-93
2023/11/01 09:50:17;;;;;;;3.50;1.15;;;14.00;87.30;;;;;;5089685;28;20020;-93
2023/11/01 09:52:43;;;;;;;3.15;1.42;;;14.10;90.60;;;;;;5085578;28;20020;-93
2023/11/01 09:55:09;;;;;;;4.03;1.50;;;14.20;89.70;;;;;;5084490;28;20028;-94
2023/11/01 09:57:36;;;;;;;2.95;1.60;;;14.10;89.00;;;;;;5084880;28;20052;-93
2023/11/01 10:00:03;;;;;;;2.70;1.42;;;14.10;89.60;;;;;;5082026;28;20663;-92
2023/11/01 10:02:29;;;;;;;3.15;1.35;;;14.10;91.00;;;;;;5083744;28;20028;-96
2023/11/01 10:04:56;;;;;;;2.33;1.27;;;14.30;91.20;;;;;;5074679;28;20043;-94
2023/11/01 10:07:21;;;;;;;1.67;1.33;;;14.30;89.30;;;;;;5085854;28;20090;-93
2023/11/01 10:09:49;;;;;;;1.90;1.17;;;14.50;89.70;;;;;;5084694;28;20020;-94
2023/11/01 10:12:16;;;;;;;2.95;1.40;;;14.70;87.00;;;;;;5082796;28;20465;-95
2023/11/01 10:14:42;;;;;;;3.63;1.73;;;14.90;86.40;;;;;;5064257;28;20020;-94
2023/11/01 10:17:09;;;;;;;2.70;1.60;;;14.90;85.60;;;;;;5084215;28;20016;-93
2023/11/01 10:19:35;;;;;;;5.55;1.83;;;15.00;83.00;;;;;;5065377;28;20035;-93
2023/11/01 10:22:01;;;;;;;3.70;1.30;;;15.30;83.90;;;;;;5089966;28;20052;-95
2023/11/01 10:24:28;;;;;;;2.25;1.25;;;15.40;83.50;;;;;;5084585;28;20029;-95
2023/11/01 10:26:56;;;;;;;1.88;0.90;;;15.50;83.10;;;;;;5085570;28;20052;-93
2023/11/01 10:29:27;;;;;;;4.93;2.05;;;15.50;83.50;;;;;;5067319;28;20024;-94
2023/11/01 10:31:56;;;;;;;3.88;1.23;;;15.80;83.90;;;;;;5084505;28;20028;-95
2023/11/01 10:34:31;;;;;;;5.47;1.30;;;15.80;84.60;;;;;;5062475;28;20024;-94
2023/11/01 10:36:59;;;;;;;1.63;1.52;;;16.10;84.80;;;;;;5082454;28;20055;-95
2023/11/01 10:39:25;;;;;;;1.88;0.98;;;16.10;79.50;;;;;;5080780;28;20035;-94
2023/11/01 10:41:53;;;;;;;3.42;0.90;;;16.00;77.00;;;;;;5083797;28;20028;-94
2023/11/01 10:44:20;;;;;;;2.03;0.50;;;16.10;76.50;;;;;;5083027;28;20445;-94
2023/11/01 10:46:47;;;;;;;5.45;0.82;;;16.10;76.80;;;;;;5081620;28;20021;-93
2023/11/01 10:49:13;;;;;;;3.90;0.85;;;15.90;76.90;;;;;;5081261;28;20027;-95
2023/11/01 10:51:40;;;;;;;2.70;1.27;;;15.90;80.80;;;;;;5082898;28;20021;-94
2023/11/01 10:54:07;;;;;;;2.88;1.05;;;15.70;78.20;;;;;;5073724;28;20032;-94
2023/11/01 10:56:33;;;;;;;2.50;0.65;;;15.80;77.90;;;;;;5080253;28;20116;-93
2023/11/01 10:59:34;;;;;;;2.28;1.15;;;15.80;78.30;;;;;;5082380;28;20033;-94
2023/11/01 11:02:18;;;;;;;1.77;1.15;;;15.80;79.00;;;;;;5084921;28;20036;-94
2023/11/01 11:04:56;;;;;;;2.33;0.90;;;15.90;79.50;;;;;;5064626;28;20478;-92
2023/11/01 11:07:48;;;;;;;2.10;0.80;;;15.90;78.40;;;;;;5080349;28;20025;-95
2023/11/01 11:10:29;;;;;;;2.88;0.95;;;16.00;79.70;;;;;;5075121;28;20032;-93
2023/11/01 11:13:10;;;;;;;5.40;1.20;;;16.10;76.30;;;;;;5054463;28;20026;-94
2023/11/01 11:15:48;;;;;;;3.05;0.80;;;16.10;80.40;;;;;;5082625;28;20027;-94
2023/11/01 11:18:21;;;;;;;1.70;0.50;;;16.10;78.90;;;;;;5062937;28;20028;-94
2023/11/01 11:20:47;;;;;;;1.88;0.73;;;16.20;76.50;;;;;;5066960;28;20035;-94
2023/11/01 11:23:17;;;;;;;1.25;0.50;;;16.30;77.30;;;;;;5062885;28;20028;-95
2023/11/01 11:25:52;;;;;;;3.22;0.90;;;16.40;78.40;;;;;;5063935;28;20021;-94
2023/11/01 11:28:18;;;;;;;1.85;0.88;;;16.60;78.30;;;;;;5082479;28;20020;-95
2023/11/01 11:30:57;;;;;;;2.03;0.52;;;16.70;78.40;;;;;;5083341;28;20449;-91
2023/11/01 11:33:23;;;;;;;2.42;0.73;;;16.60;74.20;;;;;;5081400;28;20051;-93
2023/11/01 11:36:25;;;;;;;0.77;0.57;;;16.50;75.70;;;;;;5080621;28;21366;-95
2023/11/01 11:38:55;;;;;;;2.45;0.65;;;16.70;74.90;;;;;;5004698;28;20030;-94
2023/11/01 11:41:26;;;;;;;1.42;0.77;;;16.80;73.40;;;;;;5067474;28;20037;-95
2023/11/01 11:44:07;;;;;;;2.00;0.90;;;17.00;72.90;;;;;;5086747;28;20110;-94
2023/11/01 11:46:33;;;;;;;2.38;0.75;;;17.00;71.90;;;;;;5086623;28;20169;-95
2023/11/01 11:49:07;;;;;;;0.95;0.63;;;17.20;73.00;;;;;;5081961;28;20040;-95
2023/11/01 11:51:34;;;;;;;2.47;0.88;;;17.20;72.80;;;;;;5079069;28;20025;-95
2023/11/01 11:54:16;;;;;;;1.20;0.80;;;17.40;72.30;;;;;;5078683;28;20051;-95
2023/11/01 11:56:43;;;;;;;1.98;0.80;;;17.50;70.00;;;;;;5076930;28;20031;-95
2023/11/01 11:59:09;;;;;;;2.35;1.58;;;17.50;75.20;;;;;;5078908;28;20025;-93
2023/11/01 12:01:35;;;;;;;3.10;0.55;;;17.50;75.00;;;;;;5077633;28;20099;-95
2023/11/01 12:04:04;;;;;;;2.42;0.50;;;17.70;66.80;;;;;;5062411;28;20032;-95
2023/11/01 12:06:46;;;;;;;1.27;0.93;;;17.90;63.70;;;;;;5076736;28;20032;-94
2023/11/01 12:09:16;;;;;;;1.55;0.73;;;18.10;59.40;;;;;;5081468;28;20017;-94
2023/11/01 12:11:45;;;;;;;1.17;0.40;;;18.20;60.40;;;;;;5081938;28;20445;-92
2023/11/01 12:14:15;;;;;;;1.20;0.85;;;18.40;58.60;;;;;;5061140;28;20032;-95
2023/11/01 12:16:41;;;;;;;1.38;1.10;;;18.70;57.20;;;;;;5062072;28;20028;-95
2023/11/01 12:19:18;;;;;;;1.92;0.60;;;18.40;56.70;;;;;;5081038;28;20119;-95
2023/11/01 12:22:05;;;;;;;0.70;0.40;;;17.90;57.70;;;;;;5078897;28;20021;-94
2023/11/01 12:24:37;;;;;;;3.72;0.60;;;17.60;57.80;;;;;;5060191;28;20044;-94
2023/11/01 12:27:04;;;;;;;0.98;0.60;;;17.60;59.80;;;;;;5078723;28;20517;-95
2023/11/01 12:29:33;;;;;;;1.20;0.43;;;17.60;56.40;;;;;;5078750;28;20047;-94
2023/11/01 12:32:03;;;;;;;1.77;0.55;;;17.30;59.60;;;;;;5063514;28;20020;-95
2023/11/01 12:34:32;;;;;;;1.40;0.50;;;17.40;60.60;;;;;;5081877;28;20506;-94
2023/11/01 12:37:04;;;;;;;2.10;0.55;;;17.60;60.90;;;;;;5064744;28;20039;-95
2023/11/01 12:39:34;;;;;;;1.52;0.63;;;17.50;60.30;;;;;;5079487;28;20052;-94
2023/11/01 12:42:23;;;;;;;1.20;0.65;;;17.50;61.30;;;;;;5083190;28;20033;-94
2023/11/01 12:44:50;;;;;;;1.83;0.85;;;17.60;61.50;;;;;;5063705;28;20101;-93
2023/11/01 12:47:17;;;;;;;1.80;0.57;;;17.40;60.60;;;;;;5082572;28;20020;-94